createdAt,value
2022-12-12T00:00:23.951Z,7.05
2022-12-12T00:02:52.064Z,4.05
2022-12-12T00:05:21.522Z,5.15
2022-12-12T00:07:48.587Z,3.63
2022-12-12T00:10:15.624Z,5.68
2022-12-12T00:12:42.529Z,4.32
2022-12-12T00:15:10.111Z,5.03
2022-12-12T00:17:37.355Z,5.25
2022-12-12T00:20:05.431Z,3.72
2022-12-12T00:22:32.905Z,4.90
2022-12-12T00:24:59.797Z,4.55
2022-12-12T00:27:26.684Z,4.20
2022-12-12T00:29:54.390Z,4.43
2022-12-12T00:32:21.943Z,4.25
2022-12-12T00:34:48.850Z,4.05
2022-12-12T00:37:16.152Z,5.10
2022-12-12T00:39:43.085Z,4.40
2022-12-12T00:42:10.061Z,4.63
2022-12-12T00:44:37.116Z,4.57
2022-12-12T00:47:04.843Z,4.32
2022-12-12T00:49:31.796Z,5.43
2022-12-12T00:51:58.695Z,5.00
2022-12-12T00:54:25.620Z,3.75
2022-12-12T00:56:52.424Z,4.65
2022-12-12T00:59:20.023Z,3.85
2022-12-12T01:01:47.777Z,4.13
2022-12-12T01:04:15.038Z,3.40
2022-12-12T01:06:42.142Z,4.43
2022-12-12T01:09:09.085Z,3.65
2022-12-12T01:11:36.164Z,4.07
2022-12-12T01:14:03.154Z,2.95
2022-12-12T01:16:31.088Z,3.65
2022-12-12T01:18:58.290Z,3.70
2022-12-12T01:21:26.831Z,3.70
2022-12-12T01:23:53.805Z,5.78
2022-12-12T01:26:23.608Z,3.28
2022-12-12T01:28:51.680Z,3.10
2022-12-12T01:31:18.626Z,3.15
2022-12-12T01:33:46.575Z,3.95
2022-12-12T01:36:16.832Z,2.72
2022-12-12T01:38:45.441Z,3.95
2022-12-12T01:41:13.450Z,2.75
2022-12-12T01:43:40.699Z,2.60
2022-12-12T01:46:31.767Z,3.70
2022-12-12T01:49:04.187Z,2.38
2022-12-12T01:51:31.688Z,2.92
2022-12-12T01:54:06.735Z,2.92
2022-12-12T01:56:35.072Z,3.83
2022-12-12T01:59:05.511Z,3.78
2022-12-12T02:01:33.375Z,2.95
2022-12-12T02:04:03.031Z,3.80
2022-12-12T02:06:30.824Z,3.17
2022-12-12T02:09:01.625Z,3.55
2022-12-12T02:11:30.079Z,2.60
2022-12-12T02:13:59.014Z,3.28
2022-12-12T02:16:31.873Z,3.30
2022-12-12T02:19:15.833Z,4.97
2022-12-12T02:21:47.583Z,2.80
2022-12-12T02:24:26.047Z,2.83
2022-12-12T02:27:11.441Z,3.65
2022-12-12T02:29:38.311Z,3.17
2022-12-12T02:32:28.097Z,2.33
2022-12-12T02:35:04.372Z,3.05
2022-12-12T02:37:36.799Z,2.08
2022-12-12T02:40:24.833Z,2.60
2022-12-12T02:43:17.779Z,2.50
2022-12-12T02:45:51.541Z,3.40
2022-12-12T02:48:30.874Z,2.75
2022-12-12T02:51:02.433Z,2.97
2022-12-12T02:53:29.408Z,2.80
2022-12-12T02:56:05.638Z,2.88
2022-12-12T02:58:36.590Z,2.50
2022-12-12T03:01:35.817Z,3.28
2022-12-12T03:04:52.303Z,2.15
2022-12-12T03:07:40.300Z,2.88
2022-12-12T03:10:31.706Z,2.90
2022-12-12T03:15:57.346Z,3.35
2022-12-12T03:18:32.140Z,2.92
2022-12-12T03:21:16.133Z,2.47
2022-12-12T03:23:51.694Z,3.45
2022-12-12T03:26:30.542Z,2.33
2022-12-12T03:29:11.728Z,2.30
2022-12-12T03:31:43.442Z,2.42
2022-12-12T03:34:19.425Z,2.60
2022-12-12T03:36:54.786Z,2.72
2022-12-12T03:39:30.340Z,1.95
2022-12-12T03:42:16.358Z,2.15
2022-12-12T03:44:49.346Z,2.35
2022-12-12T03:47:45.813Z,1.98
2022-12-12T03:50:21.346Z,2.17
2022-12-12T03:53:32.814Z,3.38
2022-12-12T03:56:11.828Z,1.80
2022-12-12T03:58:54.319Z,1.98
2022-12-12T04:01:27.040Z,2.40
2022-12-12T04:04:05.342Z,1.63
2022-12-12T04:06:42.346Z,1.63
2022-12-12T04:09:32.776Z,2.78
2022-12-12T04:12:42.783Z,1.58
2022-12-12T04:15:34.899Z,1.30
2022-12-12T04:18:27.496Z,1.63
2022-12-12T04:21:21.894Z,1.90
2022-12-12T04:24:00.693Z,2.75
2022-12-12T04:26:43.812Z,1.95
2022-12-12T04:29:19.579Z,3.10
2022-12-12T04:31:57.372Z,1.77
2022-12-12T04:34:40.858Z,1.92
2022-12-12T04:37:11.985Z,1.40
2022-12-12T04:39:41.324Z,2.45
2022-12-12T04:42:13.377Z,1.73
2022-12-12T04:44:42.774Z,1.70
2022-12-12T04:47:11.726Z,1.70
2022-12-12T04:49:42.119Z,2.10
2022-12-12T04:52:12.897Z,1.55
2022-12-12T04:54:47.559Z,1.95
2022-12-12T04:57:22.425Z,1.63
2022-12-12T04:59:49.864Z,1.83
2022-12-12T05:02:25.578Z,1.42
2022-12-12T05:05:08.379Z,1.55
2022-12-12T05:07:41.154Z,1.70
2022-12-12T05:10:13.361Z,1.20
2022-12-12T05:12:48.699Z,2.38
2022-12-12T05:15:18.068Z,1.85
2022-12-12T05:18:00.085Z,1.40
2022-12-12T05:20:26.961Z,1.52
2022-12-12T05:22:53.804Z,1.77
2022-12-12T05:25:20.630Z,1.77
2022-12-12T05:27:47.529Z,1.98
2022-12-12T05:30:14.450Z,3.28
2022-12-12T05:32:41.287Z,1.70
2022-12-12T05:35:09.614Z,1.50
2022-12-12T05:37:36.753Z,1.52
2022-12-12T05:40:05.733Z,3.22
2022-12-12T05:42:32.539Z,1.63
2022-12-12T05:44:59.426Z,2.65
2022-12-12T05:47:26.482Z,3.38
2022-12-12T05:49:53.296Z,1.55
2022-12-12T05:52:20.615Z,2.13
2022-12-12T05:54:47.436Z,2.80
2022-12-12T05:57:14.393Z,2.85
2022-12-12T05:59:41.228Z,2.85
2022-12-12T06:02:08.079Z,1.77
2022-12-12T06:04:35.358Z,1.35
2022-12-12T06:07:02.247Z,2.92
2022-12-12T06:09:29.083Z,2.40
2022-12-12T06:11:55.937Z,2.25
2022-12-12T06:14:22.907Z,3.97
2022-12-12T06:16:49.858Z,4.57
2022-12-12T06:19:19.090Z,10.05
2022-12-12T06:21:46.528Z,4.95
2022-12-12T06:24:14.180Z,4.22
2022-12-12T06:26:41.022Z,1.58
2022-12-12T06:29:08.093Z,2.67
2022-12-12T06:31:34.933Z,1.48
2022-12-12T06:34:02.019Z,1.40
2022-12-12T06:36:28.917Z,2.72
2022-12-12T06:38:58.535Z,1.10
2022-12-12T06:41:27.419Z,1.98
2022-12-12T06:43:54.558Z,1.38
2022-12-12T06:46:24.263Z,2.78
2022-12-12T06:48:51.708Z,2.00
2022-12-12T06:51:22.200Z,1.20
2022-12-12T06:53:49.231Z,1.37
2022-12-12T06:56:18.784Z,2.05
2022-12-12T06:58:46.173Z,1.45
2022-12-12T07:01:15.081Z,1.48
2022-12-12T07:03:42.269Z,1.20
2022-12-12T07:06:09.405Z,1.55
2022-12-12T07:08:36.642Z,1.77
2022-12-12T07:11:10.757Z,2.05
2022-12-12T07:13:38.204Z,2.15
2022-12-12T07:16:05.774Z,1.70
2022-12-12T07:18:32.755Z,1.60
2022-12-12T07:20:59.669Z,3.25
2022-12-12T07:23:26.563Z,3.63
2022-12-12T07:25:53.429Z,3.58
2022-12-12T07:28:20.256Z,8.25
2022-12-12T07:30:48.122Z,3.10
2022-12-12T07:33:16.928Z,6.28
2022-12-12T07:35:44.537Z,1.33
2022-12-12T07:38:12.519Z,4.32
2022-12-12T07:40:40.550Z,2.42
2022-12-12T07:43:07.579Z,8.80
2022-12-12T07:45:34.576Z,3.22
2022-12-12T07:48:01.517Z,6.53
2022-12-12T07:50:28.563Z,3.38
2022-12-12T07:52:55.765Z,4.70
2022-12-12T07:55:23.366Z,1.67
2022-12-12T07:57:50.488Z,2.17
2022-12-12T08:00:18.700Z,2.83
2022-12-12T08:02:46.493Z,10.30
2022-12-12T08:05:14.094Z,2.22
2022-12-12T08:07:41.603Z,1.90
2022-12-12T08:10:09.569Z,3.70
2022-12-12T08:12:37.007Z,3.47
2022-12-12T08:15:04.541Z,2.97
2022-12-12T08:17:31.661Z,2.72
2022-12-12T08:19:58.952Z,2.35
2022-12-12T08:22:25.957Z,1.60
2022-12-12T08:24:53.125Z,1.70
2022-12-12T08:27:20.221Z,1.55
2022-12-12T08:29:47.474Z,2.58
2022-12-12T08:32:14.823Z,1.85
2022-12-12T08:34:41.992Z,1.50
2022-12-12T08:37:08.983Z,4.07
2022-12-12T08:39:37.189Z,3.95
2022-12-12T08:42:04.461Z,1.95
2022-12-12T08:44:32.227Z,3.15
2022-12-12T08:46:59.281Z,1.58
2022-12-12T08:49:26.355Z,3.10
2022-12-12T08:51:53.699Z,1.95
2022-12-12T08:54:20.813Z,2.58
2022-12-12T08:56:47.917Z,1.33
2022-12-12T08:59:15.955Z,1.98
2022-12-12T09:01:43.723Z,2.22
2022-12-12T09:04:10.986Z,31.20
2022-12-12T09:06:38.117Z,36.30
2022-12-12T09:09:05.284Z,44.17
2022-12-12T09:11:32.608Z,36.72
2022-12-12T09:13:59.945Z,41.53
2022-12-12T09:16:28.012Z,27.88
2022-12-12T09:18:55.034Z,27.45
2022-12-12T09:21:22.697Z,29.05
2022-12-12T09:23:50.658Z,25.67
2022-12-12T09:26:18.249Z,16.00
2022-12-12T09:28:45.647Z,23.90
2022-12-12T09:31:14.617Z,10.10
2022-12-12T09:33:43.426Z,4.80
2022-12-12T09:36:15.342Z,4.78
2022-12-12T09:38:42.860Z,7.25
2022-12-12T09:41:10.161Z,9.23
2022-12-12T09:44:06.885Z,5.95
2022-12-12T09:46:39.345Z,5.63
2022-12-12T09:49:28.157Z,5.28
2022-12-12T09:51:56.916Z,3.55
2022-12-12T09:54:27.757Z,6.47
2022-12-12T09:57:07.272Z,2.65
2022-12-12T09:59:40.554Z,5.88
2022-12-12T10:02:29.317Z,14.38
2022-12-12T10:05:04.943Z,8.90
2022-12-12T10:08:12.177Z,2.30
2022-12-12T10:10:41.660Z,9.18
2022-12-12T10:13:24.922Z,4.43
2022-12-12T10:15:56.992Z,5.28
2022-12-12T10:18:29.880Z,7.22
2022-12-12T10:21:03.135Z,6.30
2022-12-12T10:23:51.469Z,5.85
2022-12-12T10:26:22.450Z,7.32
2022-12-12T10:28:56.218Z,5.40
2022-12-12T10:31:32.135Z,6.13
2022-12-12T10:34:18.340Z,7.90
2022-12-12T10:37:28.378Z,4.63
2022-12-12T10:40:20.014Z,8.82
2022-12-12T10:43:02.022Z,4.20
2022-12-12T10:45:55.328Z,4.47
2022-12-12T10:48:22.456Z,3.53
2022-12-12T10:51:01.233Z,3.47
2022-12-12T10:53:29.749Z,3.22
2022-12-12T10:55:59.997Z,2.72
2022-12-12T10:58:35.790Z,1.73
2022-12-12T11:01:05.509Z,5.13
2022-12-12T11:03:39.604Z,2.92
2022-12-12T11:06:19.319Z,2.35
2022-12-12T11:08:56.008Z,4.70
2022-12-12T11:11:29.421Z,2.13
2022-12-12T11:14:02.296Z,2.05
2022-12-12T11:16:44.435Z,1.70
2022-12-12T11:19:20.324Z,3.00
2022-12-12T11:21:48.837Z,2.17
2022-12-12T11:24:21.518Z,3.05
2022-12-12T11:27:02.887Z,2.97
2022-12-12T11:32:20.437Z,2.35
2022-12-12T11:35:15.437Z,2.42
2022-12-12T11:37:49.208Z,2.80
2022-12-12T11:40:37.428Z,1.60
2022-12-12T11:43:19.929Z,2.88
2022-12-12T11:46:03.941Z,2.85
2022-12-12T11:48:33.973Z,1.85
2022-12-12T11:51:02.180Z,2.28
2022-12-12T11:53:29.902Z,2.65
2022-12-12T11:56:24.997Z,4.18
2022-12-12T11:58:58.720Z,2.00
2022-12-12T12:01:45.798Z,1.35
2022-12-12T12:04:33.760Z,3.25
2022-12-12T12:07:15.938Z,2.97
2022-12-12T12:09:59.496Z,9.95
2022-12-12T12:12:44.539Z,1.48
2022-12-12T12:15:27.883Z,6.50
2022-12-12T12:18:01.804Z,2.17
2022-12-12T12:20:48.633Z,9.10
2022-12-12T12:23:25.419Z,12.60
2022-12-12T12:26:13.989Z,8.18
2022-12-12T12:28:41.012Z,4.80
2022-12-12T12:31:21.167Z,9.43
2022-12-12T12:33:51.209Z,8.27
2022-12-12T12:36:25.725Z,6.53
2022-12-12T12:39:24.668Z,11.32
2022-12-12T12:42:22.602Z,5.53
2022-12-12T12:45:17.558Z,3.90
2022-12-12T12:48:03.540Z,4.55
2022-12-12T12:50:35.019Z,5.15
2022-12-12T12:53:35.679Z,3.97
2022-12-12T12:56:25.826Z,1.73
2022-12-12T12:58:58.078Z,3.25
2022-12-12T13:01:43.433Z,6.72
2022-12-12T13:04:33.817Z,1.30
2022-12-12T13:07:09.764Z,2.90
2022-12-12T13:09:54.934Z,2.25
2022-12-12T13:12:43.904Z,3.53
2022-12-12T13:15:23.922Z,2.55
2022-12-12T13:17:54.277Z,4.90
2022-12-12T13:20:26.434Z,19.17
2022-12-12T13:23:11.526Z,4.68
2022-12-12T13:25:50.205Z,8.45
2022-12-12T13:28:27.262Z,8.25
2022-12-12T13:31:00.232Z,2.55
2022-12-12T13:33:45.426Z,4.28
2022-12-12T13:36:30.317Z,8.38
2022-12-12T13:39:01.297Z,9.50
2022-12-12T13:41:56.935Z,8.77
2022-12-12T13:44:33.354Z,11.43
2022-12-12T13:47:00.998Z,9.38
2022-12-12T13:49:46.852Z,11.82
2022-12-12T13:52:29.163Z,7.93
2022-12-12T13:55:18.643Z,4.30
2022-12-12T13:57:59.248Z,4.22
2022-12-12T14:00:29.116Z,4.55
2022-12-12T14:03:16.621Z,5.15
2022-12-12T14:05:51.741Z,3.67
2022-12-12T14:08:26.999Z,4.13
2022-12-12T14:11:04.026Z,4.65
2022-12-12T14:13:46.202Z,3.20
2022-12-12T14:16:18.452Z,7.55
2022-12-12T14:18:53.798Z,6.50
2022-12-12T14:21:39.203Z,7.95
2022-12-12T14:24:32.859Z,23.20
2022-12-12T14:27:02.605Z,16.73
2022-12-12T14:29:44.766Z,19.50
2022-12-12T14:32:12.112Z,16.60
2022-12-12T14:35:10.276Z,27.65
2022-12-12T14:38:06.125Z,54.95
2022-12-12T14:40:38.262Z,82.13
2022-12-12T14:43:28.864Z,105.43
2022-12-12T14:46:01.351Z,165.63
2022-12-12T14:48:36.805Z,122.00
2022-12-12T14:51:29.993Z,103.13
2022-12-12T14:54:00.043Z,127.10
2022-12-12T14:56:38.427Z,123.90
2022-12-12T14:59:18.531Z,113.82
2022-12-12T15:01:49.974Z,116.88
2022-12-12T15:04:27.417Z,105.30
2022-12-12T15:07:02.519Z,93.57
2022-12-12T15:09:40.041Z,82.63
2022-12-12T15:12:21.295Z,76.43
2022-12-12T15:17:28.113Z,86.63
2022-12-12T15:20:05.420Z,67.63
2022-12-12T15:22:51.216Z,68.53
2022-12-12T15:25:21.186Z,51.60
2022-12-12T15:27:56.165Z,50.22
2022-12-12T15:30:37.978Z,40.75
2022-12-12T15:33:08.954Z,38.85
2022-12-12T15:35:36.616Z,27.10
2022-12-12T15:38:12.315Z,21.52
2022-12-12T15:40:40.999Z,26.85
2022-12-12T15:43:17.786Z,20.40
2022-12-12T15:45:57.269Z,18.50
2022-12-12T15:48:28.976Z,24.52
2022-12-12T15:51:04.728Z,25.08
2022-12-12T15:53:52.844Z,17.52
2022-12-12T15:56:20.444Z,18.10
2022-12-12T15:58:52.857Z,21.95
2022-12-12T16:01:26.382Z,20.02
2022-12-12T16:04:24.960Z,13.18
2022-12-12T16:06:53.747Z,20.67
2022-12-12T16:09:23.488Z,11.60
2022-12-12T16:11:52.204Z,11.43
2022-12-12T16:14:42.378Z,10.15
2022-12-12T16:17:19.758Z,9.65
2022-12-12T16:19:53.499Z,15.32
2022-12-12T16:22:35.187Z,8.70
2022-12-12T16:25:22.208Z,11.43
2022-12-12T16:28:10.493Z,9.00
2022-12-12T16:30:40.914Z,10.30
2022-12-12T16:33:25.679Z,8.10
2022-12-12T16:35:53.096Z,8.77
2022-12-12T16:38:21.663Z,7.03
2022-12-12T16:40:51.730Z,9.38
2022-12-12T16:43:21.352Z,10.07
2022-12-12T16:45:54.189Z,19.40
2022-12-12T16:48:23.817Z,6.00
2022-12-12T16:50:55.615Z,4.97
2022-12-12T16:53:22.889Z,13.60
2022-12-12T16:55:51.954Z,17.73
2022-12-12T16:58:21.803Z,26.88
2022-12-12T17:00:50.635Z,17.75
2022-12-12T17:03:20.242Z,15.77
2022-12-12T17:05:48.931Z,16.05
2022-12-12T17:08:17.378Z,8.65
2022-12-12T17:10:46.425Z,13.82
2022-12-12T17:13:19.221Z,14.50
2022-12-12T17:15:47.353Z,6.97
2022-12-12T17:18:14.626Z,10.57
2022-12-12T17:20:42.136Z,24.25
2022-12-12T17:26:03.036Z,19.08
2022-12-12T17:28:32.321Z,14.43
2022-12-12T17:30:59.470Z,22.23
2022-12-12T17:33:28.103Z,11.15
2022-12-12T17:35:59.995Z,9.70
2022-12-12T17:38:28.419Z,9.82
2022-12-12T17:40:57.767Z,8.75
2022-12-12T17:43:25.918Z,10.32
2022-12-12T17:46:01.606Z,9.93
2022-12-12T17:48:31.067Z,7.15
2022-12-12T17:51:04.724Z,11.35
2022-12-12T17:53:36.864Z,15.15
2022-12-12T17:56:12.432Z,14.00
2022-12-12T17:58:43.860Z,12.52
2022-12-12T18:01:14.501Z,16.30
2022-12-12T18:03:44.707Z,10.10
2022-12-12T18:06:12.786Z,16.08
2022-12-12T18:08:40.704Z,9.93
2022-12-12T18:11:17.148Z,12.13
2022-12-12T18:13:45.553Z,11.90
2022-12-12T18:16:15.200Z,8.77
2022-12-12T18:18:43.373Z,9.50
2022-12-12T18:21:42.840Z,11.50
2022-12-12T18:24:04.528Z,6.32
2022-12-12T18:26:31.743Z,7.47
2022-12-12T18:29:01.686Z,9.45
2022-12-12T18:31:30.785Z,5.97
2022-12-12T18:33:59.916Z,6.88
2022-12-12T18:36:29.333Z,6.78
2022-12-12T18:38:58.215Z,5.20
2022-12-12T18:41:27.863Z,8.65
2022-12-12T18:43:56.363Z,10.13
2022-12-12T18:46:26.811Z,10.07
2022-12-12T18:48:54.583Z,10.43
2022-12-12T18:51:25.020Z,29.50
2022-12-12T18:53:54.731Z,26.27
2022-12-12T18:56:25.456Z,22.83
2022-12-12T18:58:58.794Z,15.90
2022-12-12T19:01:31.441Z,22.15
2022-12-12T19:04:02.488Z,19.95
2022-12-12T19:06:35.149Z,15.43
2022-12-12T19:09:09.279Z,8.75
2022-12-12T19:11:39.037Z,8.02
2022-12-12T19:14:08.064Z,8.75
2022-12-12T19:16:36.077Z,8.55
2022-12-12T19:19:10.257Z,6.88
2022-12-12T19:21:39.203Z,12.32
2022-12-12T19:24:09.676Z,7.78
2022-12-12T19:26:37.965Z,9.40
2022-12-12T19:29:07.960Z,6.53
2022-12-12T19:31:36.959Z,8.75
2022-12-12T19:34:07.576Z,9.00
2022-12-12T19:36:36.953Z,7.78
2022-12-12T19:39:07.803Z,7.95
2022-12-12T19:41:36.589Z,14.85
2022-12-12T19:44:08.780Z,15.93
2022-12-12T19:46:39.673Z,35.75
2022-12-12T19:49:10.753Z,31.48
2022-12-12T19:51:39.886Z,51.53
2022-12-12T19:54:12.531Z,33.88
2022-12-12T19:56:42.445Z,32.15
2022-12-12T19:59:13.648Z,30.45
2022-12-12T20:04:17.612Z,78.30
2022-12-12T20:06:50.049Z,63.97
2022-12-12T20:09:18.859Z,50.35
2022-12-12T20:11:48.632Z,41.58
2022-12-12T20:14:24.757Z,51.35
2022-12-12T20:16:54.477Z,41.75
2022-12-12T20:19:24.063Z,31.70
2022-12-12T20:22:02.425Z,27.92
2022-12-12T20:24:31.629Z,25.67
2022-12-12T20:27:00.080Z,29.85
2022-12-12T20:29:28.718Z,22.17
2022-12-12T20:31:56.292Z,20.50
2022-12-12T20:34:25.395Z,18.75
2022-12-12T20:36:55.946Z,16.00
2022-12-12T20:39:25.382Z,12.95
2022-12-12T20:41:54.061Z,15.90
2022-12-12T20:44:22.899Z,11.52
2022-12-12T20:46:50.441Z,10.70
2022-12-12T20:49:20.767Z,14.13
2022-12-12T20:51:57.664Z,10.53
2022-12-12T20:54:29.990Z,11.30
2022-12-12T20:56:59.446Z,9.88
2022-12-12T20:59:29.124Z,12.15
2022-12-12T21:01:57.814Z,11.93
2022-12-12T21:04:26.460Z,17.30
2022-12-12T21:06:55.484Z,10.93
2022-12-12T21:09:26.788Z,10.82
2022-12-12T21:11:58.537Z,7.88
2022-12-12T21:14:28.860Z,9.82
2022-12-12T21:16:57.290Z,9.07
2022-12-12T21:19:25.787Z,7.05
2022-12-12T21:21:54.643Z,9.05
2022-12-12T21:24:32.789Z,14.45
2022-12-12T21:27:00.792Z,9.45
2022-12-12T21:29:30.394Z,8.25
2022-12-12T21:31:58.383Z,9.77
2022-12-12T21:34:29.677Z,24.73
2022-12-12T21:37:04.875Z,29.45
2022-12-12T21:39:32.633Z,24.45
2022-12-12T21:42:01.201Z,22.67
2022-12-12T21:44:31.163Z,20.10
2022-12-12T21:46:59.659Z,20.80
2022-12-12T21:49:28.465Z,14.05
2022-12-12T21:51:59.114Z,19.67
2022-12-12T21:54:30.450Z,12.00
2022-12-12T21:57:02.545Z,13.32
2022-12-12T21:59:30.777Z,11.80
2022-12-12T22:02:00.638Z,10.30
2022-12-12T22:04:30.318Z,13.77
2022-12-12T22:06:58.642Z,10.18
2022-12-12T22:09:28.199Z,12.07
2022-12-12T22:12:04.122Z,10.60
2022-12-12T22:14:35.614Z,10.10
2022-12-12T22:17:05.901Z,12.18
2022-12-12T22:19:33.769Z,12.73
2022-12-12T22:22:01.219Z,10.00
2022-12-12T22:24:30.628Z,12.82
2022-12-12T22:26:58.500Z,9.50
2022-12-12T22:29:27.094Z,10.63
2022-12-12T22:31:54.518Z,12.23
2022-12-12T22:34:26.435Z,25.92
2022-12-12T22:36:54.716Z,14.90
2022-12-12T22:39:28.034Z,13.93
2022-12-12T22:41:57.022Z,13.77
2022-12-12T22:44:26.115Z,7.72
2022-12-12T22:46:56.239Z,5.88
2022-12-12T22:49:29.329Z,9.25
2022-12-12T22:51:58.620Z,9.23
2022-12-12T22:54:29.793Z,10.05
2022-12-12T22:59:27.355Z,7.80
2022-12-12T23:01:55.614Z,6.50
2022-12-12T23:04:23.720Z,6.18
2022-12-12T23:06:51.426Z,5.38
2022-12-12T23:09:23.580Z,8.30
2022-12-12T23:11:52.088Z,5.07
2022-12-12T23:14:22.113Z,5.22
2022-12-12T23:16:50.675Z,9.18
2022-12-12T23:19:21.111Z,4.53
2022-12-12T23:21:48.370Z,7.72
2022-12-12T23:24:15.992Z,5.45
2022-12-12T23:26:43.320Z,6.65
2022-12-12T23:29:14.344Z,4.57
2022-12-12T23:31:41.637Z,5.18
2022-12-12T23:34:14.338Z,5.90
2022-12-12T23:36:44.328Z,5.57
2022-12-12T23:39:12.787Z,4.63
2022-12-12T23:41:40.360Z,6.80
2022-12-12T23:44:07.956Z,4.55
2022-12-12T23:46:36.600Z,4.85
2022-12-12T23:49:14.468Z,3.90
2022-12-12T23:51:50.609Z,4.22
2022-12-12T23:54:20.917Z,4.93
2022-12-12T23:56:49.049Z,5.73
2022-12-12T23:59:18.216Z,5.20
